createdAt,value
2023-02-11T00:01:11.593Z,14.23
2023-02-11T00:03:39.384Z,18.83
2023-02-11T00:06:11.463Z,17.70
2023-02-11T00:08:39.897Z,16.37
2023-02-11T00:11:07.632Z,12.60
2023-02-11T00:13:34.834Z,19.70
2023-02-11T00:16:10.036Z,20.20
2023-02-11T00:18:37.388Z,21.07
2023-02-11T00:21:15.693Z,19.80
2023-02-11T00:23:44.068Z,19.60
2023-02-11T00:26:15.047Z,16.60
2023-02-11T00:28:44.293Z,19.47
2023-02-11T00:31:13.604Z,21.10
2023-02-11T00:33:41.413Z,18.27
2023-02-11T00:36:13.055Z,15.63
2023-02-11T00:38:40.275Z,19.77
2023-02-11T00:41:07.590Z,21.37
2023-02-11T00:43:35.830Z,18.83
2023-02-11T00:46:03.717Z,18.23
2023-02-11T00:48:31.728Z,21.63
2023-02-11T00:51:01.801Z,18.03
2023-02-11T00:53:29.010Z,21.03
2023-02-11T00:55:56.374Z,16.07
2023-02-11T00:58:27.114Z,16.73
2023-02-11T01:00:56.467Z,15.73
2023-02-11T01:03:25.241Z,19.30
2023-02-11T01:05:53.071Z,19.77
2023-02-11T01:08:20.422Z,15.10
2023-02-11T01:10:55.873Z,21.67
2023-02-11T01:13:24.442Z,17.03
2023-02-11T01:15:54.914Z,20.70
2023-02-11T01:18:22.201Z,15.87
2023-02-11T01:20:51.339Z,23.40
2023-02-11T01:23:18.933Z,20.90
2023-02-11T01:25:46.678Z,20.30
2023-02-11T01:28:34.331Z,18.50
2023-02-11T01:31:02.872Z,21.47
2023-02-11T01:33:30.744Z,18.20
2023-02-11T01:36:03.866Z,19.87
2023-02-11T01:38:32.251Z,16.80
2023-02-11T01:41:03.154Z,17.87
2023-02-11T01:43:44.106Z,20.07
2023-02-11T01:46:27.247Z,12.50
2023-02-11T01:49:10.464Z,20.67
2023-02-11T01:51:42.486Z,19.33
2023-02-11T01:54:32.662Z,20.83
2023-02-11T01:57:20.398Z,19.03
2023-02-11T02:00:12.553Z,18.73
2023-02-11T02:03:09.779Z,15.70
2023-02-11T02:05:59.968Z,16.63
2023-02-11T02:08:43.584Z,16.20
2023-02-11T02:11:11.664Z,18.57
2023-02-11T02:13:38.985Z,19.47
2023-02-11T02:16:14.050Z,17.63
2023-02-11T02:19:13.293Z,19.30
2023-02-11T02:22:13.992Z,15.77
2023-02-11T02:25:00.830Z,16.57
2023-02-11T02:27:37.570Z,14.10
2023-02-11T02:30:39.770Z,17.00
2023-02-11T02:33:37.665Z,13.97
2023-02-11T02:36:13.702Z,16.53
2023-02-11T02:39:17.581Z,17.00
2023-02-11T02:41:45.845Z,17.63
2023-02-11T02:44:13.127Z,16.43
2023-02-11T02:46:40.433Z,16.20
2023-02-11T02:49:13.914Z,16.40
2023-02-11T02:52:02.661Z,19.23
2023-02-11T02:54:53.042Z,16.90
2023-02-11T02:57:48.346Z,14.87
2023-02-11T03:00:30.882Z,14.67
2023-02-11T03:03:20.230Z,14.40
2023-02-11T03:05:56.799Z,15.70
2023-02-11T03:08:32.138Z,12.10
2023-02-11T03:11:01.256Z,15.30
2023-02-11T03:13:33.865Z,12.17
2023-02-11T03:16:09.110Z,16.27
2023-02-11T03:18:39.658Z,11.33
2023-02-11T03:21:09.820Z,12.67
2023-02-11T03:23:42.627Z,14.30
2023-02-11T03:26:31.138Z,13.80
2023-02-11T03:29:16.695Z,15.87
2023-02-11T03:32:01.176Z,13.60
2023-02-11T03:34:41.779Z,10.60
2023-02-11T03:37:18.577Z,8.57
2023-02-11T03:39:57.145Z,12.93
2023-02-11T03:42:28.740Z,12.43
2023-02-11T03:45:07.880Z,12.80
2023-02-11T03:47:38.272Z,11.30
2023-02-11T03:50:10.064Z,12.40
2023-02-11T03:52:38.555Z,11.43
2023-02-11T03:55:19.195Z,11.27
2023-02-11T03:57:47.475Z,14.53
2023-02-11T04:00:15.434Z,8.13
2023-02-11T04:02:44.123Z,6.53
2023-02-11T04:05:15.394Z,12.43
2023-02-11T04:07:42.686Z,15.13
2023-02-11T04:10:11.657Z,9.97
2023-02-11T04:12:38.987Z,11.80
2023-02-11T04:15:07.513Z,9.80
2023-02-11T04:17:34.925Z,13.13
2023-02-11T04:20:02.194Z,11.63
2023-02-11T04:22:30.296Z,12.60
2023-02-11T04:24:57.664Z,12.60
2023-02-11T04:27:25.285Z,9.90
2023-02-11T04:29:52.758Z,11.63
2023-02-11T04:32:20.720Z,11.80
2023-02-11T04:34:48.544Z,10.00
2023-02-11T04:37:15.813Z,11.63
2023-02-11T04:39:43.160Z,9.20
2023-02-11T04:42:10.890Z,11.60
2023-02-11T04:44:38.083Z,9.70
2023-02-11T04:47:05.325Z,11.30
2023-02-11T04:49:32.460Z,11.90
2023-02-11T04:51:59.961Z,10.33
2023-02-11T04:54:27.533Z,11.87
2023-02-11T04:56:54.688Z,11.60
2023-02-11T04:59:22.394Z,10.47
2023-02-11T05:01:49.865Z,11.00
2023-02-11T05:04:17.341Z,12.00
2023-02-11T05:06:44.631Z,11.00
2023-02-11T05:09:13.225Z,10.63
2023-02-11T05:11:40.745Z,10.70
2023-02-11T05:14:07.932Z,11.43
2023-02-11T05:16:35.383Z,10.30
2023-02-11T05:19:02.847Z,10.80
2023-02-11T05:21:30.131Z,10.20
2023-02-11T05:23:57.607Z,10.67
2023-02-11T05:26:25.590Z,11.53
2023-02-11T05:28:52.745Z,10.27
2023-02-11T05:31:20.037Z,8.80
2023-02-11T05:33:47.195Z,10.60
2023-02-11T05:36:15.015Z,10.63
2023-02-11T05:38:43.687Z,11.23
2023-02-11T05:41:11.852Z,10.60
2023-02-11T05:43:39.677Z,9.83
2023-02-11T05:46:07.830Z,10.17
2023-02-11T05:48:35.074Z,12.13
2023-02-11T05:51:02.250Z,10.30
2023-02-11T05:53:29.927Z,8.60
2023-02-11T05:55:57.400Z,10.37
2023-02-11T05:58:25.321Z,10.33
2023-02-11T06:00:52.667Z,8.63
2023-02-11T06:03:20.120Z,9.67
2023-02-11T06:05:47.357Z,11.20
2023-02-11T06:08:14.544Z,10.10
2023-02-11T06:10:45.289Z,8.20
2023-02-11T06:13:13.042Z,7.70
2023-02-11T06:15:40.666Z,10.37
2023-02-11T06:18:09.529Z,9.00
2023-02-11T06:20:37.242Z,10.47
2023-02-11T06:23:04.406Z,9.43
2023-02-11T06:25:31.671Z,10.87
2023-02-11T06:27:58.831Z,11.07
2023-02-11T06:30:26.157Z,10.37
2023-02-11T06:32:54.627Z,9.97
2023-02-11T06:35:21.836Z,10.00
2023-02-11T06:37:49.665Z,10.87
2023-02-11T06:40:16.983Z,10.07
2023-02-11T06:42:44.324Z,10.13
2023-02-11T06:45:13.166Z,9.63
2023-02-11T06:47:40.833Z,8.60
2023-02-11T06:50:12.371Z,8.47
2023-02-11T06:52:40.054Z,10.93
2023-02-11T06:55:08.228Z,9.30
2023-02-11T06:57:35.509Z,10.77
2023-02-11T07:00:02.788Z,11.70
2023-02-11T07:02:31.057Z,10.70
2023-02-11T07:04:58.342Z,9.53
2023-02-11T07:07:26.163Z,10.67
2023-02-11T07:09:53.343Z,11.20
2023-02-11T07:12:20.624Z,11.53
2023-02-11T07:14:47.820Z,10.30
2023-02-11T07:17:15.284Z,11.33
2023-02-11T07:19:43.233Z,12.70
2023-02-11T07:22:10.994Z,9.90
2023-02-11T07:24:38.157Z,10.57
2023-02-11T07:27:05.309Z,11.70
2023-02-11T07:29:32.971Z,10.80
2023-02-11T07:32:00.788Z,11.03
2023-02-11T07:34:28.053Z,12.40
2023-02-11T07:36:55.198Z,11.07
2023-02-11T07:39:22.496Z,10.40
2023-02-11T07:41:49.670Z,12.30
2023-02-11T07:44:17.489Z,11.67
2023-02-11T07:46:45.524Z,11.40
2023-02-11T07:49:13.020Z,12.33
2023-02-11T07:51:40.240Z,12.67
2023-02-11T07:54:07.850Z,12.40
2023-02-11T07:56:35.055Z,11.70
2023-02-11T07:59:03.848Z,11.00
2023-02-11T08:01:31.363Z,11.30
2023-02-11T08:03:59.937Z,10.27
2023-02-11T08:06:29.611Z,12.10
2023-02-11T08:08:57.330Z,12.87
2023-02-11T08:11:27.620Z,11.80
2023-02-11T08:13:56.181Z,12.20
2023-02-11T08:16:24.747Z,11.07
2023-02-11T08:18:55.156Z,12.50
2023-02-11T08:21:22.322Z,12.10
2023-02-11T08:23:49.994Z,11.93
2023-02-11T08:26:20.310Z,11.60
2023-02-11T08:28:50.320Z,11.43
2023-02-11T08:31:28.377Z,12.30
2023-02-11T08:33:58.040Z,11.13
2023-02-11T08:36:29.092Z,11.13
2023-02-11T08:39:16.154Z,10.97
2023-02-11T08:41:49.070Z,12.07
2023-02-11T08:44:20.651Z,12.23
2023-02-11T08:46:48.936Z,12.00
2023-02-11T08:49:17.275Z,11.07
2023-02-11T08:51:45.920Z,11.27
2023-02-11T08:54:13.328Z,11.43
2023-02-11T08:56:40.987Z,9.70
2023-02-11T08:59:11.638Z,9.53
2023-02-11T09:01:39.464Z,14.70
2023-02-11T09:04:06.834Z,11.80
2023-02-11T09:06:34.136Z,10.60
2023-02-11T09:09:01.408Z,9.83
2023-02-11T09:11:35.326Z,11.53
2023-02-11T09:14:04.238Z,11.20
2023-02-11T09:16:34.574Z,11.33
2023-02-11T09:19:03.846Z,11.60
2023-02-11T09:21:31.378Z,12.83
2023-02-11T09:23:58.610Z,12.33
2023-02-11T09:26:28.748Z,10.73
2023-02-11T09:28:56.512Z,11.07
2023-02-11T09:31:27.497Z,10.67
2023-02-11T09:33:58.967Z,10.57
2023-02-11T09:36:29.378Z,11.07
2023-02-11T09:38:59.019Z,11.03
2023-02-11T09:41:41.664Z,10.07
2023-02-11T09:44:18.650Z,12.40
2023-02-11T09:46:53.320Z,11.63
2023-02-11T09:49:26.366Z,11.37
2023-02-11T09:52:05.938Z,11.47
2023-02-11T09:54:53.795Z,14.70
2023-02-11T09:57:28.660Z,12.57
2023-02-11T09:59:57.625Z,11.20
2023-02-11T10:02:29.748Z,11.37
2023-02-11T10:05:18.227Z,9.80
2023-02-11T10:08:04.926Z,10.27
2023-02-11T10:10:52.201Z,9.93
2023-02-11T10:13:31.375Z,7.27
2023-02-11T10:16:28.912Z,9.83
2023-02-11T10:19:13.869Z,9.07
2023-02-11T10:21:51.422Z,8.17
2023-02-11T10:24:19.470Z,8.50
2023-02-11T10:26:47.466Z,8.03
2023-02-11T10:29:36.110Z,9.47
2023-02-11T10:32:12.781Z,7.30
2023-02-11T10:34:42.110Z,8.20
2023-02-11T10:37:12.887Z,8.10
2023-02-11T10:39:41.669Z,8.43
2023-02-11T10:42:13.432Z,7.10
2023-02-11T10:44:54.912Z,7.00
2023-02-11T10:47:34.802Z,7.80
2023-02-11T10:50:27.504Z,7.57
2023-02-11T10:53:20.508Z,8.43
2023-02-11T10:55:53.842Z,8.03
2023-02-11T10:58:45.836Z,8.40
2023-02-11T11:01:23.864Z,8.33
2023-02-11T11:03:52.974Z,8.30
2023-02-11T11:06:32.756Z,6.80
2023-02-11T11:09:01.100Z,7.23
2023-02-11T11:11:28.334Z,6.50
2023-02-11T11:14:01.200Z,8.53
2023-02-11T11:16:33.342Z,5.40
2023-02-11T11:19:06.596Z,7.70
2023-02-11T11:21:36.409Z,6.43
2023-02-11T11:24:04.636Z,6.60
2023-02-11T11:26:54.011Z,6.80
2023-02-11T11:29:38.324Z,5.10
2023-02-11T11:32:15.649Z,7.00
2023-02-11T11:34:48.465Z,5.70
2023-02-11T11:37:28.700Z,5.23
2023-02-11T11:40:04.645Z,5.77
2023-02-11T11:42:34.619Z,6.33
2023-02-11T11:45:25.676Z,4.80
2023-02-11T11:48:06.675Z,5.87
2023-02-11T11:50:43.266Z,5.50
2023-02-11T11:53:28.219Z,5.90
2023-02-11T11:56:11.475Z,5.40
2023-02-11T11:58:39.149Z,5.30
2023-02-11T12:01:30.340Z,5.07
2023-02-11T12:04:18.596Z,5.63
2023-02-11T12:07:05.053Z,5.00
2023-02-11T12:09:48.943Z,4.90
2023-02-11T12:12:34.233Z,5.73
2023-02-11T12:15:25.541Z,3.83
2023-02-11T12:18:32.781Z,4.53
2023-02-11T12:21:25.401Z,4.83
2023-02-11T12:24:29.074Z,5.20
2023-02-11T12:27:10.454Z,6.60
2023-02-11T12:30:19.920Z,4.47
2023-02-11T12:33:12.181Z,4.83
2023-02-11T12:35:55.063Z,6.53
2023-02-11T12:38:49.116Z,6.17
2023-02-11T12:42:06.208Z,5.00
2023-02-11T12:44:41.713Z,3.80
2023-02-11T12:47:35.717Z,4.10
2023-02-11T12:50:22.405Z,3.83
2023-02-11T12:53:02.937Z,5.20
2023-02-11T12:55:37.261Z,3.70
2023-02-11T12:58:07.446Z,3.23
2023-02-11T13:00:48.079Z,3.90
2023-02-11T13:03:23.717Z,3.30
2023-02-11T13:05:59.049Z,3.03
2023-02-11T13:08:31.850Z,3.07
2023-02-11T13:11:03.513Z,2.83
2023-02-11T13:13:54.780Z,2.87
2023-02-11T13:16:39.978Z,3.50
2023-02-11T13:19:27.281Z,3.37
2023-02-11T13:22:19.553Z,2.93
2023-02-11T13:25:14.974Z,2.50
2023-02-11T13:27:58.721Z,2.90
2023-02-11T13:30:30.346Z,3.00
2023-02-11T13:32:57.468Z,2.70
2023-02-11T13:35:37.168Z,2.87
2023-02-11T13:38:21.788Z,5.90
2023-02-11T13:41:04.452Z,3.07
2023-02-11T13:43:34.816Z,2.90
2023-02-11T13:46:04.760Z,2.70
2023-02-11T13:48:35.823Z,3.80
2023-02-11T13:51:07.094Z,3.47
2023-02-11T13:53:50.095Z,3.03
2023-02-11T13:56:43.973Z,3.03
2023-02-11T13:59:27.572Z,2.97
2023-02-11T14:02:24.564Z,3.47
2023-02-11T14:05:39.632Z,3.10
2023-02-11T14:08:28.527Z,3.20
2023-02-11T14:11:01.547Z,3.00
2023-02-11T14:13:33.308Z,3.00
2023-02-11T14:16:36.324Z,3.63
2023-02-11T14:19:05.900Z,3.80
2023-02-11T14:21:38.796Z,5.87
2023-02-11T14:24:06.875Z,3.87
2023-02-11T14:26:56.625Z,3.37
2023-02-11T14:30:08.486Z,3.17
2023-02-11T14:32:48.101Z,3.00
2023-02-11T14:35:39.170Z,6.10
2023-02-11T14:38:54.624Z,3.10
2023-02-11T14:41:31.776Z,4.60
2023-02-11T14:44:03.557Z,3.70
2023-02-11T14:46:33.580Z,3.70
2023-02-11T14:49:03.677Z,4.33
2023-02-11T14:51:41.014Z,2.67
2023-02-11T14:54:22.693Z,3.73
2023-02-11T14:57:08.257Z,3.07
2023-02-11T14:59:36.080Z,3.27
2023-02-11T15:02:03.768Z,3.83
2023-02-11T15:04:34.345Z,3.57
2023-02-11T15:07:08.119Z,3.20
2023-02-11T15:09:45.606Z,3.67
2023-02-11T15:12:28.382Z,4.60
2023-02-11T15:14:58.798Z,4.50
2023-02-11T15:17:29.988Z,5.47
2023-02-11T15:20:01.791Z,3.20
2023-02-11T15:22:36.681Z,3.93
2023-02-11T15:25:14.625Z,4.03
2023-02-11T15:27:48.610Z,4.60
2023-02-11T15:30:21.692Z,4.70
2023-02-11T15:33:02.634Z,4.27
2023-02-11T15:35:34.947Z,5.40
2023-02-11T15:38:03.411Z,5.37
2023-02-11T15:40:34.315Z,4.53
2023-02-11T15:43:02.907Z,5.13
2023-02-11T15:45:37.835Z,4.37
2023-02-11T15:48:45.155Z,4.87
2023-02-11T15:51:23.009Z,5.40
2023-02-11T15:53:58.459Z,7.80
2023-02-11T15:56:30.569Z,5.40
2023-02-11T15:59:00.536Z,8.20
2023-02-11T16:01:34.270Z,6.73
2023-02-11T16:04:03.526Z,4.60
2023-02-11T16:06:42.415Z,5.00
2023-02-11T16:09:12.603Z,5.83
2023-02-11T16:11:48.826Z,7.07
2023-02-11T16:14:31.121Z,5.07
2023-02-11T16:17:12.045Z,4.47
2023-02-11T16:19:45.919Z,4.73
2023-02-11T16:22:24.134Z,4.10
2023-02-11T16:24:53.540Z,5.17
2023-02-11T16:27:30.940Z,5.00
2023-02-11T16:29:58.724Z,6.03
2023-02-11T16:32:28.103Z,5.50
2023-02-11T16:34:57.957Z,4.20
2023-02-11T16:37:25.663Z,6.07
2023-02-11T16:39:58.083Z,5.90
2023-02-11T16:42:25.925Z,9.43
2023-02-11T16:44:53.078Z,7.13
2023-02-11T16:47:24.986Z,5.10
2023-02-11T16:49:53.046Z,5.53
2023-02-11T16:52:21.627Z,5.10
2023-02-11T16:54:49.957Z,4.33
2023-02-11T16:57:20.309Z,5.73
2023-02-11T16:59:49.444Z,4.67
2023-02-11T17:02:28.093Z,5.17
2023-02-11T17:04:58.066Z,5.30
2023-02-11T17:07:25.805Z,5.20
2023-02-11T17:09:53.522Z,4.53
2023-02-11T17:12:21.638Z,6.00
2023-02-11T17:14:48.812Z,5.80
2023-02-11T17:17:16.044Z,5.37
2023-02-11T17:19:43.843Z,6.27
2023-02-11T17:22:12.028Z,5.87
2023-02-11T17:24:39.208Z,5.00
2023-02-11T17:27:06.458Z,6.47
2023-02-11T17:29:34.048Z,5.77
2023-02-11T17:32:01.907Z,5.67
2023-02-11T17:34:29.271Z,6.47
2023-02-11T17:36:57.830Z,6.27
2023-02-11T17:39:25.819Z,5.40
2023-02-11T17:41:53.101Z,7.07
2023-02-11T17:44:20.421Z,5.83
2023-02-11T17:46:48.030Z,5.57
2023-02-11T17:49:16.683Z,9.57
2023-02-11T17:51:44.086Z,6.93
2023-02-11T17:54:14.462Z,6.03
2023-02-11T17:56:41.832Z,7.00
2023-02-11T17:59:11.350Z,7.73
2023-02-11T18:01:39.680Z,7.33
2023-02-11T18:04:08.240Z,6.80
2023-02-11T18:06:36.139Z,9.98
2023-02-11T18:09:04.277Z,7.53
2023-02-11T18:11:33.318Z,7.80
2023-02-11T18:14:02.887Z,7.53
2023-02-11T18:16:30.845Z,6.90
2023-02-11T18:18:58.886Z,7.40
2023-02-11T18:21:27.378Z,7.07
2023-02-11T18:23:56.825Z,6.67
2023-02-11T18:26:28.002Z,7.83
2023-02-11T18:28:57.828Z,6.80
2023-02-11T18:31:26.253Z,6.70
2023-02-11T18:33:54.001Z,7.17
2023-02-11T18:36:22.608Z,7.00
2023-02-11T18:38:49.949Z,8.33
2023-02-11T18:41:17.133Z,7.00
2023-02-11T18:43:45.200Z,7.17
2023-02-11T18:46:14.520Z,7.40
2023-02-11T18:48:44.618Z,7.77
2023-02-11T18:51:15.302Z,8.77
2023-02-11T18:53:43.250Z,8.50
2023-02-11T18:56:16.495Z,10.63
2023-02-11T18:58:44.359Z,8.07
2023-02-11T19:01:20.927Z,8.13
2023-02-11T19:03:48.804Z,7.50
2023-02-11T19:06:28.523Z,6.83
2023-02-11T19:08:59.713Z,7.67
2023-02-11T19:11:47.602Z,8.67
2023-02-11T19:14:18.504Z,8.43
2023-02-11T19:16:46.333Z,8.07
2023-02-11T19:19:14.890Z,7.00
2023-02-11T19:21:44.081Z,8.90
2023-02-11T19:24:12.540Z,6.90
2023-02-11T19:26:39.800Z,9.30
2023-02-11T19:29:09.042Z,8.47
2023-02-11T19:31:36.772Z,7.23
2023-02-11T19:34:05.255Z,8.23
2023-02-11T19:36:32.561Z,10.97
2023-02-11T19:39:01.389Z,11.40
2023-02-11T19:41:30.581Z,9.90
2023-02-11T19:43:58.029Z,8.70
2023-02-11T19:46:33.507Z,9.87
2023-02-11T19:49:01.435Z,8.00
2023-02-11T19:51:29.508Z,7.80
2023-02-11T19:53:58.833Z,8.50
2023-02-11T19:56:28.483Z,9.27
2023-02-11T19:58:55.900Z,8.00
2023-02-11T20:01:24.409Z,7.63
2023-02-11T20:03:54.205Z,7.90
2023-02-11T20:06:27.977Z,6.90
2023-02-11T20:08:58.556Z,7.00
2023-02-11T20:11:29.733Z,7.67
2023-02-11T20:13:57.334Z,7.43
2023-02-11T20:16:44.565Z,9.10
2023-02-11T20:19:17.841Z,8.50
2023-02-11T20:21:47.766Z,8.53
2023-02-11T20:24:18.807Z,7.80
2023-02-11T20:26:48.204Z,9.17
2023-02-11T20:29:18.441Z,8.33
2023-02-11T20:31:46.030Z,8.53
2023-02-11T20:34:13.468Z,8.77
2023-02-11T20:36:40.820Z,6.87
2023-02-11T20:39:08.753Z,7.80
2023-02-11T20:41:39.618Z,10.10
2023-02-11T20:44:11.968Z,8.47
2023-02-11T20:46:42.753Z,8.40
2023-02-11T20:49:12.324Z,9.37
2023-02-11T20:51:40.054Z,8.17
2023-02-11T20:54:11.568Z,8.30
2023-02-11T20:56:38.846Z,8.90
2023-02-11T20:59:06.816Z,9.70
2023-02-11T21:01:42.497Z,8.80
2023-02-11T21:04:19.054Z,11.00
2023-02-11T21:06:49.648Z,8.50
2023-02-11T21:09:20.809Z,8.73
2023-02-11T21:11:49.229Z,8.50
2023-02-11T21:14:17.869Z,8.37
2023-02-11T21:16:46.711Z,8.33
2023-02-11T21:19:14.421Z,8.27
2023-02-11T21:21:42.512Z,7.20
2023-02-11T21:24:10.586Z,8.40
2023-02-11T21:26:38.332Z,8.07
2023-02-11T21:29:07.099Z,8.07
2023-02-11T21:31:35.509Z,9.17
2023-02-11T21:34:04.463Z,8.60
2023-02-11T21:36:31.874Z,9.10
2023-02-11T21:39:00.026Z,8.30
2023-02-11T21:41:27.671Z,8.40
2023-02-11T21:43:54.884Z,8.53
2023-02-11T21:46:22.876Z,7.30
2023-02-11T21:48:50.501Z,8.20
2023-02-11T21:51:20.537Z,8.17
2023-02-11T21:53:52.458Z,8.60
2023-02-11T21:56:19.881Z,8.63
2023-02-11T21:58:51.985Z,8.23
2023-02-11T22:01:22.325Z,9.20
2023-02-11T22:03:49.780Z,8.50
2023-02-11T22:06:21.265Z,8.83
2023-02-11T22:08:49.869Z,8.50
2023-02-11T22:11:17.786Z,8.80
2023-02-11T22:13:46.244Z,8.30
2023-02-11T22:16:16.657Z,8.23
2023-02-11T22:18:46.311Z,10.50
2023-02-11T22:21:17.184Z,10.23
2023-02-11T22:23:45.993Z,9.20
2023-02-11T22:26:16.942Z,9.37
2023-02-11T22:28:44.582Z,10.30
2023-02-11T22:31:17.586Z,8.37
2023-02-11T22:33:45.504Z,10.53
2023-02-11T22:36:16.790Z,10.50
2023-02-11T22:38:44.814Z,10.60
2023-02-11T22:41:12.504Z,9.10
2023-02-11T22:43:42.415Z,9.93
2023-02-11T22:46:12.156Z,9.77
2023-02-11T22:48:40.050Z,9.50
2023-02-11T22:51:12.767Z,9.20
2023-02-11T22:53:40.259Z,8.10
2023-02-11T22:56:15.822Z,8.50
2023-02-11T22:58:43.372Z,10.70
2023-02-11T23:01:11.225Z,9.87
2023-02-11T23:03:39.049Z,9.43
2023-02-11T23:06:06.629Z,8.27
2023-02-11T23:08:33.943Z,9.80
2023-02-11T23:11:09.689Z,8.97
2023-02-11T23:13:39.611Z,8.53
2023-02-11T23:16:09.933Z,9.47
2023-02-11T23:18:38.558Z,7.67
2023-02-11T23:21:12.080Z,8.07
2023-02-11T23:23:39.824Z,6.90
2023-02-11T23:26:12.315Z,7.47
2023-02-11T23:28:40.329Z,7.27
2023-02-11T23:31:21.161Z,6.00
2023-02-11T23:33:49.993Z,5.80
2023-02-11T23:36:18.285Z,6.10
2023-02-11T23:38:45.851Z,6.00
2023-02-11T23:41:13.800Z,6.10
2023-02-11T23:43:41.170Z,5.67
2023-02-11T23:46:09.697Z,5.20
2023-02-11T23:48:37.568Z,5.17
2023-02-11T23:51:05.210Z,5.87
2023-02-11T23:53:32.437Z,5.40
2023-02-11T23:55:59.613Z,4.93
2023-02-11T23:58:26.940Z,3.60
